Time;durP1;ratioP1;P1;durP2;ratioP2;P2;SDS_P1;SDS_P2;PMS_P1;PMS_P2;Temp;Humidity;BMP_temperature;BMP_pressure;BME280_temperature;BME280_humidity;BME280_pressure;Samples;Min_cycle;Max_cycle;Signal;HPM_P1;HPM_P2
2021/07/08 00:02:51;;;;;;;3.60;3.30;;;22.30;48.30;;;;;;10457180;28;20229;-74
2021/07/08 00:07:57;;;;;;;5.20;3.70;;;22.30;48.90;;;;;;10452016;28;20832;-74
2021/07/08 00:13:02;;;;;;;6.47;3.27;;;22.30;48.20;;;;;;10459871;28;20225;-73
2021/07/08 00:18:08;;;;;;;3.57;3.27;;;22.30;48.30;;;;;;10458102;28;20287;-68
2021/07/08 00:23:11;;;;;;;4.17;3.77;;;22.20;48.10;;;;;;10456643;28;20589;-68
2021/07/08 00:28:16;;;;;;;3.33;3.13;;;22.20;47.80;;;;;;10460264;28;20236;-68
2021/07/08 00:33:20;;;;;;;3.80;3.50;;;22.20;48.40;;;;;;10454926;28;20229;-68
2021/07/08 00:38:23;;;;;;;5.63;3.40;;;22.10;48.00;;;;;;10459568;28;20225;-68
2021/07/08 00:43:30;;;;;;;3.60;3.13;;;22.10;48.00;;;;;;10460198;28;20239;-68
2021/07/08 00:48:34;;;;;;;5.13;3.27;;;22.10;48.40;;;;;;10459485;28;20221;-68
2021/07/08 01:00:01;;;;;;;3.40;3.10;;;22.00;48.80;;;;;;10459188;28;20228;-68
2021/07/08 01:05:05;;;;;;;3.20;2.90;;;22.00;48.70;;;;;;10456310;28;20217;-68
2021/07/08 01:10:09;;;;;;;3.03;2.83;;;22.00;48.40;;;;;;10455271;28;20225;-68
2021/07/08 01:15:14;;;;;;;4.27;3.23;;;21.90;48.40;;;;;;10443076;28;20270;-69
2021/07/08 01:20:20;;;;;;;4.07;2.77;;;21.90;48.80;;;;;;10449878;28;20233;-68
2021/07/08 01:25:25;;;;;;;5.90;2.83;;;22.00;48.80;;;;;;10457832;28;20236;-68
2021/07/08 01:30:29;;;;;;;4.03;3.10;;;21.90;48.80;;;;;;10445228;28;20229;-68
2021/07/08 01:35:32;;;;;;;3.13;2.83;;;21.90;49.30;;;;;;10444023;28;20585;-68
2021/07/08 01:40:39;;;;;;;3.10;2.80;;;21.90;48.50;;;;;;10445208;28;20229;-68
2021/07/08 01:45:42;;;;;;;3.40;3.10;;;21.90;49.00;;;;;;10447743;28;20224;-68
2021/07/08 01:50:45;;;;;;;3.30;3.00;;;21.90;48.80;;;;;;10449580;28;20224;-68
2021/07/08 01:55:49;;;;;;;2.70;2.50;;;21.90;49.50;;;;;;10445309;28;20256;-68
2021/07/08 02:00:53;;;;;;;3.40;3.10;;;21.90;49.10;;;;;;10445777;28;20225;-68
2021/07/08 02:05:56;;;;;;;2.93;2.73;;;21.90;49.00;;;;;;10454017;28;20224;-68
2021/07/08 02:11:01;;;;;;;2.73;2.53;;;21.90;48.80;;;;;;10451674;28;20691;-68
2021/07/08 02:16:06;;;;;;;5.07;2.93;;;21.90;49.30;;;;;;10450157;28;20592;-68
2021/07/08 02:21:11;;;;;;;3.37;3.07;;;21.90;49.20;;;;;;10445109;28;20257;-68
2021/07/08 02:26:15;;;;;;;3.60;2.87;;;21.90;49.20;;;;;;10446151;28;20231;-68
2021/07/08 02:31:19;;;;;;;4.30;2.93;;;21.90;49.40;;;;;;10453905;28;20238;-68
2021/07/08 02:36:22;;;;;;;5.23;3.10;;;21.90;49.00;;;;;;10450057;28;20229;-68
2021/07/08 02:41:27;;;;;;;3.77;2.73;;;21.90;48.80;;;;;;10449085;28;20232;-68
2021/07/08 02:46:30;;;;;;;3.07;2.83;;;21.80;49.10;;;;;;10455772;28;20232;-68
2021/07/08 02:51:33;;;;;;;5.30;3.10;;;21.80;48.70;;;;;;10445849;28;20229;-68
2021/07/08 02:56:38;;;;;;;3.20;2.83;;;21.70;48.70;;;;;;10456213;28;20243;-68
2021/07/08 03:01:41;;;;;;;4.00;3.20;;;21.60;49.30;;;;;;10446370;28;20235;-68
2021/07/08 03:06:44;;;;;;;3.10;2.90;;;21.50;49.00;;;;;;10447055;28;20229;-68
2021/07/08 03:11:48;;;;;;;4.30;3.40;;;21.40;49.20;;;;;;10453241;28;20259;-68
2021/07/08 03:16:51;;;;;;;4.93;4.53;;;21.40;50.00;;;;;;10449959;28;20228;-68
2021/07/08 03:21:55;;;;;;;5.60;5.10;;;21.30;49.70;;;;;;10458541;28;20327;-68
2021/07/08 03:27:00;;;;;;;5.60;4.40;;;21.30;49.90;;;;;;10448707;28;20229;-68
2021/07/08 03:32:03;;;;;;;4.30;3.90;;;21.20;49.80;;;;;;10451411;28;20225;-68
2021/07/08 03:37:07;;;;;;;4.00;3.67;;;21.10;49.90;;;;;;10445540;28;20254;-68
2021/07/08 03:42:11;;;;;;;4.27;3.50;;;21.00;49.90;;;;;;10443669;28;20776;-68
2021/07/08 03:47:15;;;;;;;6.63;4.00;;;21.00;50.80;;;;;;10452751;28;20237;-68
2021/07/08 03:52:18;;;;;;;3.73;3.43;;;21.00;50.40;;;;;;10453508;28;20613;-68
2021/07/08 03:57:22;;;;;;;5.10;3.43;;;21.00;50.40;;;;;;10457690;28;20233;-68
2021/07/08 04:02:26;;;;;;;3.87;3.57;;;21.10;51.10;;;;;;10450567;28;20728;-68
2021/07/08 04:07:29;;;;;;;3.73;3.43;;;21.10;50.50;;;;;;10451495;28;20230;-68
2021/07/08 04:12:33;;;;;;;3.50;3.20;;;21.10;50.40;;;;;;10449654;28;20216;-68
2021/07/08 04:17:36;;;;;;;4.20;3.20;;;21.10;51.00;;;;;;10448760;28;20771;-68
2021/07/08 04:22:40;;;;;;;3.57;3.13;;;21.20;50.60;;;;;;10445201;28;20225;-68
2021/07/08 04:27:44;;;;;;;3.40;3.20;;;21.20;50.50;;;;;;10451078;28;21011;-68
2021/07/08 04:32:48;;;;;;;3.23;3.03;;;21.30;51.10;;;;;;10444789;28;20237;-68
2021/07/08 04:37:51;;;;;;;2.93;2.70;;;21.30;50.60;;;;;;10452180;28;20229;-68
2021/07/08 04:42:56;;;;;;;3.17;2.87;;;21.40;50.60;;;;;;10443024;28;20225;-68
2021/07/08 04:48:00;;;;;;;4.00;3.20;;;21.40;50.80;;;;;;10442410;28;20225;-68
2021/07/08 04:53:03;;;;;;;4.23;3.07;;;21.50;50.70;;;;;;10447677;28;20235;-68
2021/07/08 04:58:08;;;;;;;3.73;3.20;;;21.60;50.70;;;;;;10462415;28;20302;-68
2021/07/08 05:03:11;;;;;;;3.30;3.00;;;21.60;51.00;;;;;;10460792;28;20701;-68
2021/07/08 05:08:15;;;;;;;3.60;3.30;;;21.70;50.30;;;;;;10456364;28;20225;-68
2021/07/08 05:13:19;;;;;;;3.57;3.13;;;21.70;50.20;;;;;;10454088;28;20243;-68
2021/07/08 05:18:22;;;;;;;3.40;3.20;;;21.70;50.70;;;;;;10458507;28;20255;-68
2021/07/08 05:23:27;;;;;;;5.70;3.73;;;21.70;50.20;;;;;;10453148;28;20296;-68
2021/07/08 05:28:32;;;;;;;3.83;3.50;;;21.70;50.20;;;;;;10454162;28;20961;-68
2021/07/08 05:33:36;;;;;;;4.10;3.77;;;21.70;50.80;;;;;;10450414;28;20228;-68
2021/07/08 05:38:39;;;;;;;4.00;3.60;;;21.70;50.20;;;;;;10450988;28;20229;-68
2021/07/08 05:43:43;;;;;;;4.93;3.77;;;21.60;50.20;;;;;;10457682;28;20231;-68
2021/07/08 05:48:46;;;;;;;3.90;3.37;;;21.60;51.00;;;;;;10447635;28;20237;-68
2021/07/08 05:53:50;;;;;;;3.80;3.23;;;21.60;50.40;;;;;;10448016;28;20237;-68
2021/07/08 05:58:55;;;;;;;3.43;3.17;;;21.70;50.70;;;;;;10455673;28;20229;-68
2021/07/08 06:03:58;;;;;;;3.67;3.40;;;21.70;51.50;;;;;;10450578;28;20228;-68
2021/07/08 06:09:01;;;;;;;4.70;3.50;;;21.70;51.20;;;;;;10453941;28;20263;-72
2021/07/08 06:14:06;;;;;;;3.30;3.10;;;21.80;50.90;;;;;;10451542;28;20235;-68
2021/07/08 06:19:09;;;;;;;3.60;3.40;;;21.80;51.40;;;;;;10451709;28;20594;-68
2021/07/08 06:24:12;;;;;;;4.13;3.83;;;21.80;50.90;;;;;;10448598;28;20228;-68
2021/07/08 06:29:17;;;;;;;3.80;3.60;;;21.80;51.10;;;;;;10454365;28;20229;-68
2021/07/08 06:34:20;;;;;;;3.77;3.47;;;21.90;51.80;;;;;;10457316;28;20232;-68
2021/07/08 06:39:23;;;;;;;3.77;3.47;;;21.90;51.30;;;;;;10447743;28;20236;-68
2021/07/08 06:44:28;;;;;;;4.43;3.30;;;22.00;51.40;;;;;;10452001;28;20240;-68
2021/07/08 06:49:34;;;;;;;3.87;3.60;;;22.00;51.90;;;;;;10457943;28;20873;-68
2021/07/08 06:54:37;;;;;;;3.50;3.27;;;22.10;51.40;;;;;;10452021;28;20220;-68
2021/07/08 06:59:42;;;;;;;4.17;3.40;;;22.10;51.20;;;;;;10451163;28;20236;-68
2021/07/08 07:04:45;;;;;;;5.57;3.60;;;22.20;51.60;;;;;;10451656;28;20224;-68
2021/07/08 07:09:48;;;;;;;4.30;4.00;;;22.20;51.10;;;;;;10453195;28;20244;-68
2021/07/08 07:14:52;;;;;;;4.03;3.73;;;22.20;51.30;;;;;;10449312;28;20705;-68
2021/07/08 07:19:55;;;;;;;4.10;3.73;;;22.20;51.60;;;;;;10449076;28;20776;-67
2021/07/08 07:24:59;;;;;;;4.77;4.47;;;22.20;51.20;;;;;;10448728;28;20233;-68
2021/07/08 07:30:05;;;;;;;4.63;4.23;;;22.30;51.50;;;;;;10451738;28;20229;-69
2021/07/08 07:35:11;;;;;;;4.90;4.53;;;22.30;51.90;;;;;;10455315;28;20251;-68
2021/07/08 07:40:15;;;;;;;5.07;4.77;;;22.30;51.50;;;;;;10449079;28;20224;-68
2021/07/08 07:45:19;;;;;;;5.23;4.67;;;22.30;51.40;;;;;;10448066;28;20229;-68
2021/07/08 07:50:26;;;;;;;4.27;3.97;;;22.40;51.80;;;;;;10446544;28;20229;-68
2021/07/08 07:55:29;;;;;;;3.83;3.63;;;22.40;51.80;;;;;;10455624;28;20685;-68
2021/07/08 08:00:35;;;;;;;4.23;3.90;;;22.40;51.90;;;;;;10449423;28;20799;-68
2021/07/08 08:05:41;;;;;;;4.47;4.00;;;22.50;52.50;;;;;;10454657;28;20231;-68
2021/07/08 08:10:45;;;;;;;5.27;4.87;;;22.50;52.30;;;;;;10448898;28;20234;-68
2021/07/08 08:15:51;;;;;;;5.47;5.17;;;22.70;52.10;;;;;;10446500;28;20229;-68
2021/07/08 08:20:57;;;;;;;5.37;5.03;;;22.70;52.00;;;;;;10447704;28;20227;-68
2021/07/08 08:26:00;;;;;;;5.27;4.87;;;22.80;51.60;;;;;;10453481;28;20743;-68
2021/07/08 08:31:05;;;;;;;5.60;5.20;;;22.80;51.30;;;;;;10424636;28;20230;-68
2021/07/08 08:36:10;;;;;;;4.67;4.37;;;22.90;51.70;;;;;;10414698;28;20253;-68
2021/07/08 08:41:13;;;;;;;5.40;5.00;;;22.90;51.30;;;;;;10415091;28;20697;-68
2021/07/08 08:46:19;;;;;;;4.60;4.30;;;22.90;51.30;;;;;;10456183;28;20239;-68
2021/07/08 08:51:25;;;;;;;4.10;3.80;;;22.90;51.30;;;;;;10459186;28;22606;-68
2021/07/08 08:56:28;;;;;;;4.87;3.90;;;23.00;51.40;;;;;;10451372;28;20229;-68
2021/07/08 09:01:34;;;;;;;4.23;3.97;;;22.90;51.30;;;;;;10449194;28;20228;-68
2021/07/08 09:06:38;;;;;;;4.13;3.33;;;23.00;51.40;;;;;;10450201;28;20283;-68
2021/07/08 09:11:42;;;;;;;3.97;3.67;;;23.10;51.50;;;;;;10453674;28;20241;-68
2021/07/08 09:16:46;;;;;;;5.60;3.73;;;23.10;51.50;;;;;;10455158;28;20224;-68
2021/07/08 09:21:52;;;;;;;3.70;3.47;;;23.10;51.50;;;;;;10447646;28;20220;-68
2021/07/08 09:26:58;;;;;;;4.23;4.00;;;23.20;51.60;;;;;;10453669;28;20232;-68
2021/07/08 09:32:05;;;;;;;4.20;4.00;;;23.20;51.60;;;;;;10445929;28;20743;-68
2021/07/08 09:37:11;;;;;;;4.60;4.20;;;23.20;51.60;;;;;;10448564;28;20216;-68
2021/07/08 09:42:15;;;;;;;2.97;2.87;;;23.20;51.60;;;;;;10441042;28;20221;-68
2021/07/08 09:47:27;;;;;;;3.30;3.10;;;23.20;51.60;;;;;;10445335;28;20232;-68
2021/07/08 09:52:32;;;;;;;3.50;3.20;;;23.20;51.60;;;;;;10451010;28;20229;-68
2021/07/08 09:57:40;;;;;;;3.60;3.30;;;23.30;51.60;;;;;;10454637;28;20216;-68
2021/07/08 10:02:47;;;;;;;4.27;3.97;;;23.30;51.60;;;;;;10447258;28;20705;-68
2021/07/08 10:07:51;;;;;;;4.87;4.37;;;23.50;52.00;;;;;;10452176;28;20658;-68
2021/07/08 10:12:56;;;;;;;5.90;5.50;;;23.60;51.90;;;;;;10448803;28;20225;-68
2021/07/08 10:18:02;;;;;;;6.40;5.90;;;23.80;51.40;;;;;;10447516;28;20221;-68
2021/07/08 10:23:07;;;;;;;5.20;4.90;;;23.90;50.70;;;;;;10448874;28;20619;-68
2021/07/08 10:28:11;;;;;;;5.77;5.37;;;24.00;50.60;;;;;;10444205;28;20752;-68
2021/07/08 10:33:19;;;;;;;6.40;5.90;;;24.00;50.10;;;;;;10442800;28;20244;-68
2021/07/08 10:38:36;;;;;;;6.40;5.80;;;24.00;50.00;;;;;;10453665;28;20239;-68
2021/07/08 10:43:41;;;;;;;6.67;6.07;;;24.00;49.40;;;;;;10448632;28;20234;-68
2021/07/08 10:49:13;;;;;;;5.00;4.70;;;24.00;50.40;;;;;;10448690;28;20233;-68
2021/07/08 10:54:27;;;;;;;4.47;4.10;;;24.00;50.00;;;;;;10452703;28;20565;-68
2021/07/08 10:59:39;;;;;;;3.90;3.60;;;23.90;49.60;;;;;;10448533;28;21203;-68
2021/07/08 11:04:48;;;;;;;3.77;3.57;;;23.90;49.80;;;;;;10453656;28;20231;-68
2021/07/08 11:10:00;;;;;;;3.90;3.60;;;23.80;49.80;;;;;;10448646;28;20229;-68
2021/07/08 11:15:05;;;;;;;4.00;3.70;;;23.70;50.30;;;;;;10447309;28;20221;-68
2021/07/08 11:20:33;;;;;;;4.23;3.93;;;23.70;50.30;;;;;;10455180;28;20228;-68
2021/07/08 11:25:43;;;;;;;3.80;3.60;;;23.60;50.60;;;;;;10454431;28;20705;-68
2021/07/08 11:30:58;;;;;;;5.10;4.80;;;23.60;50.70;;;;;;10454598;28;20235;-68
2021/07/08 11:36:11;;;;;;;4.83;4.50;;;23.60;50.50;;;;;;10450644;28;20252;-72
2021/07/08 11:41:16;;;;;;;5.57;5.17;;;23.70;50.90;;;;;;10449099;28;20614;-68
2021/07/08 11:46:23;;;;;;;5.73;5.27;;;23.80;50.50;;;;;;10447315;28;20712;-68
2021/07/08 11:51:29;;;;;;;6.27;5.47;;;23.80;50.50;;;;;;10447536;28;20224;-68
2021/07/08 11:56:33;;;;;;;7.10;6.60;;;23.90;50.50;;;;;;10448737;28;20693;-68
2021/07/08 12:01:40;;;;;;;8.00;7.50;;;24.00;50.40;;;;;;10454662;28;20229;-68
2021/07/08 12:06:45;;;;;;;8.77;8.17;;;24.00;49.90;;;;;;10457506;28;20729;-68
2021/07/08 12:11:53;;;;;;;8.70;8.10;;;24.00;49.90;;;;;;10457005;28;20239;-68
2021/07/08 12:16:56;;;;;;;9.20;8.57;;;24.10;50.10;;;;;;10456856;28;20229;-68
2021/07/08 12:22:04;;;;;;;9.60;8.90;;;24.10;50.20;;;;;;10456328;28;20227;-68
2021/07/08 12:27:09;;;;;;;9.50;8.80;;;24.00;50.50;;;;;;10456244;28;20228;-68
2021/07/08 12:32:16;;;;;;;9.53;8.93;;;24.10;50.90;;;;;;10452504;28;20236;-68
2021/07/08 12:37:22;;;;;;;9.83;9.13;;;24.10;51.10;;;;;;10462993;28;20233;-68
2021/07/08 12:42:32;;;;;;;10.50;9.80;;;24.10;50.70;;;;;;10456648;28;20661;-68
2021/07/08 12:47:36;;;;;;;11.20;10.40;;;24.10;50.40;;;;;;10462554;28;20225;-69
2021/07/08 12:52:43;;;;;;;10.30;9.37;;;24.00;50.00;;;;;;10446444;28;20272;-68
2021/07/08 12:58:00;;;;;;;10.33;9.43;;;23.80;50.10;;;;;;10453376;28;20255;-69
2021/07/08 13:03:04;;;;;;;10.07;9.27;;;23.60;50.00;;;;;;10461139;28;20220;-69
2021/07/08 13:08:11;;;;;;;8.87;8.13;;;23.40;50.30;;;;;;10454271;28;20225;-69
2021/07/08 13:13:16;;;;;;;7.63;7.00;;;23.20;51.60;;;;;;10456570;28;20221;-69
2021/07/08 13:18:27;;;;;;;6.70;6.03;;;23.00;51.40;;;;;;10446544;28;20239;-68
2021/07/08 13:23:36;;;;;;;5.70;5.20;;;22.80;52.00;;;;;;10456850;28;20320;-68
2021/07/08 13:28:41;;;;;;;5.30;4.90;;;22.80;52.10;;;;;;10461055;28;20229;-69
2021/07/08 13:33:46;;;;;;;4.73;4.43;;;22.80;52.00;;;;;;10451951;28;20221;-68
2021/07/08 13:38:57;;;;;;;4.87;4.47;;;22.80;52.20;;;;;;10452817;28;20232;-68
2021/07/08 13:44:04;;;;;;;5.17;4.67;;;22.90;52.80;;;;;;10447826;28;20221;-68
2021/07/08 13:49:10;;;;;;;3.70;3.40;;;22.90;52.60;;;;;;10456870;28;20313;-68
2021/07/08 13:54:16;;;;;;;3.47;3.13;;;23.10;52.60;;;;;;10454106;28;20232;-68
2021/07/08 13:59:21;;;;;;;3.00;2.80;;;23.10;52.50;;;;;;10455092;28;20224;-68
2021/07/08 14:04:24;;;;;;;4.27;3.83;;;23.20;52.30;;;;;;10452280;28;20243;-68
2021/07/08 14:09:28;;;;;;;3.03;2.83;;;23.30;52.40;;;;;;10451309;28;20233;-70
2021/07/08 14:14:32;;;;;;;2.80;2.60;;;23.40;51.70;;;;;;10454011;28;20222;-70
2021/07/08 14:19:35;;;;;;;2.77;2.43;;;23.50;51.80;;;;;;10448671;28;20241;-71
2021/07/08 14:24:40;;;;;;;3.00;2.80;;;23.50;51.80;;;;;;10448298;28;20232;-70
2021/07/08 14:29:43;;;;;;;2.60;2.40;;;23.60;51.90;;;;;;10450840;28;20725;-70
2021/07/08 14:34:46;;;;;;;2.70;2.40;;;23.60;51.20;;;;;;10450540;28;20232;-70
2021/07/08 14:39:52;;;;;;;2.27;2.17;;;23.70;51.00;;;;;;10455259;28;20229;-70
2021/07/08 14:45:00;;;;;;;2.80;2.60;;;23.70;51.40;;;;;;10449632;28;20774;-70
2021/07/08 14:50:06;;;;;;;2.83;2.63;;;23.70;52.00;;;;;;10455516;28;20220;-70
2021/07/08 14:55:12;;;;;;;2.90;2.70;;;23.80;52.00;;;;;;10457667;28;20232;-70
2021/07/08 15:00:15;;;;;;;2.50;2.30;;;23.90;51.40;;;;;;10444387;28;20653;-70
2021/07/08 15:05:19;;;;;;;2.20;2.10;;;24.00;51.50;;;;;;10457762;28;20250;-70
2021/07/08 15:10:24;;;;;;;2.80;2.60;;;24.10;52.30;;;;;;10450111;28;20237;-70
2021/07/08 15:15:29;;;;;;;2.43;2.33;;;24.20;51.00;;;;;;10451582;28;20578;-70
2021/07/08 15:20:32;;;;;;;3.47;2.50;;;24.30;50.80;;;;;;10449403;28;20912;-70
2021/07/08 15:25:37;;;;;;;2.37;2.27;;;24.30;50.30;;;;;;10452771;28;20226;-70
2021/07/08 15:30:41;;;;;;;2.17;2.07;;;24.20;49.60;;;;;;10451410;28;20232;-70
2021/07/08 15:35:44;;;;;;;2.00;1.90;;;24.20;50.00;;;;;;10448505;28;20240;-70
2021/07/08 15:40:49;;;;;;;2.47;2.27;;;24.20;49.90;;;;;;10454092;28;20239;-70
2021/07/08 15:45:52;;;;;;;2.33;2.23;;;24.20;49.60;;;;;;10445055;28;20247;-70
2021/07/08 15:50:56;;;;;;;2.37;2.13;;;24.20;50.00;;;;;;10453153;28;20236;-70
2021/07/08 15:56:01;;;;;;;2.60;2.30;;;24.20;49.80;;;;;;10452882;28;20224;-70
2021/07/08 16:01:05;;;;;;;2.90;2.70;;;24.20;50.50;;;;;;10446135;28;20712;-70
2021/07/08 16:06:10;;;;;;;2.57;2.37;;;24.10;49.90;;;;;;10451218;28;20225;-70
2021/07/08 16:11:16;;;;;;;2.27;2.17;;;23.90;49.80;;;;;;10449711;28;20235;-70
2021/07/08 16:16:19;;;;;;;2.10;1.90;;;23.80;49.70;;;;;;10447639;28;21020;-70
2021/07/08 16:21:22;;;;;;;2.27;2.10;;;23.60;50.30;;;;;;10446539;28;20236;-71
2021/07/08 16:26:26;;;;;;;2.50;2.30;;;23.50;50.30;;;;;;10452814;28;20228;-71
2021/07/08 16:31:30;;;;;;;2.40;2.20;;;23.40;50.60;;;;;;10449681;28;20232;-71
2021/07/08 16:36:33;;;;;;;3.90;2.40;;;23.30;50.70;;;;;;10450962;28;20227;-71
2021/07/08 16:41:38;;;;;;;2.67;2.17;;;23.30;51.10;;;;;;10441223;28;20236;-71
2021/07/08 16:46:41;;;;;;;2.43;2.10;;;23.20;51.60;;;;;;10448048;28;20241;-71
2021/07/08 16:51:45;;;;;;;2.30;2.10;;;23.10;51.00;;;;;;10455934;28;20239;-71
2021/07/08 16:56:50;;;;;;;3.23;1.77;;;23.00;51.40;;;;;;10456331;28;20221;-72
2021/07/08 17:01:53;;;;;;;2.50;1.90;;;22.90;51.30;;;;;;10460663;28;20233;-72
2021/07/08 17:06:57;;;;;;;1.67;1.57;;;22.90;51.30;;;;;;10452931;28;20348;-71
2021/07/08 17:12:04;;;;;;;1.97;1.57;;;22.90;51.30;;;;;;10456602;28;20238;-72
2021/07/08 17:17:08;;;;;;;1.60;1.47;;;22.80;51.20;;;;;;10455853;28;20221;-72
2021/07/08 17:22:11;;;;;;;1.90;1.40;;;22.80;50.90;;;;;;10457425;28;20240;-72
2021/07/08 17:27:16;;;;;;;2.03;1.50;;;22.80;50.60;;;;;;10444476;28;20232;-72
2021/07/08 17:32:20;;;;;;;4.87;2.20;;;22.70;50.70;;;;;;10453713;28;20783;-72
2021/07/08 17:37:23;;;;;;;1.87;1.70;;;22.70;50.40;;;;;;10448626;28;20232;-72
2021/07/08 17:42:27;;;;;;;1.93;1.80;;;22.60;51.10;;;;;;10448000;28;20229;-72
2021/07/08 17:47:32;;;;;;;4.13;1.53;;;22.70;51.10;;;;;;10442404;28;20238;-71
2021/07/08 17:52:35;;;;;;;1.47;1.43;;;22.70;51.10;;;;;;10446711;28;20229;-71
2021/07/08 17:57:40;;;;;;;1.90;1.67;;;22.80;51.20;;;;;;10451365;28;20222;-71
2021/07/08 18:02:43;;;;;;;1.93;1.20;;;22.80;51.20;;;;;;10449359;28;20339;-71
2021/07/08 18:07:49;;;;;;;1.50;1.40;;;22.80;50.60;;;;;;10446496;28;20265;-71
2021/07/08 18:12:53;;;;;;;1.20;1.13;;;22.80;50.40;;;;;;10442292;28;20582;-71
2021/07/08 18:17:57;;;;;;;1.20;1.10;;;22.80;50.10;;;;;;10451666;28;20233;-71
2021/07/08 18:23:01;;;;;;;1.80;1.40;;;22.70;49.80;;;;;;10451487;28;20572;-71
2021/07/08 18:28:07;;;;;;;2.00;1.40;;;22.50;49.70;;;;;;10450075;28;20252;-73
2021/07/08 18:33:10;;;;;;;1.47;1.10;;;22.40;50.00;;;;;;10439963;28;21139;-74
2021/07/08 18:38:13;;;;;;;1.17;0.90;;;22.30;50.10;;;;;;10443171;28;20632;-74
2021/07/08 18:43:18;;;;;;;0.90;0.90;;;22.20;50.40;;;;;;10456440;28;20229;-74
2021/07/08 18:48:21;;;;;;;1.17;1.07;;;22.20;49.80;;;;;;10452430;28;20240;-74
2021/07/08 18:53:24;;;;;;;1.47;1.00;;;22.10;49.50;;;;;;10450785;28;20261;-75
2021/07/08 18:58:29;;;;;;;1.03;0.90;;;22.00;49.80;;;;;;10451017;28;20230;-74
2021/07/08 19:03:32;;;;;;;1.00;1.00;;;21.80;50.30;;;;;;10450766;28;20244;-74
2021/07/08 19:08:36;;;;;;;2.67;1.10;;;21.70;50.20;;;;;;10449528;28;20705;-74
2021/07/08 19:13:42;;;;;;;1.57;1.00;;;21.60;50.10;;;;;;10440893;28;20264;-74
2021/07/08 19:18:46;;;;;;;1.00;1.00;;;21.50;50.50;;;;;;10432921;28;20238;-74
2021/07/08 19:23:53;;;;;;;1.20;1.00;;;21.50;50.10;;;;;;10431470;28;20265;-74
2021/07/08 19:29:14;;;;;;;1.10;1.00;;;21.50;50.10;;;;;;10445438;28;20224;-74
2021/07/08 19:34:17;;;;;;;0.97;0.90;;;21.40;50.00;;;;;;10438753;28;20244;-73
2021/07/08 19:39:21;;;;;;;0.97;0.90;;;21.30;49.90;;;;;;10438245;28;20229;-74
2021/07/08 19:44:26;;;;;;;2.37;1.10;;;21.20;49.80;;;;;;10439881;28;20231;-74
2021/07/08 19:49:31;;;;;;;1.07;1.00;;;21.10;50.10;;;;;;10445411;28;20232;-74
2021/07/08 19:54:34;;;;;;;1.20;1.10;;;21.10;50.30;;;;;;10439864;28;20352;-74
2021/07/08 19:59:41;;;;;;;2.03;1.10;;;21.00;49.90;;;;;;10442440;28;20248;-74
2021/07/08 20:04:47;;;;;;;1.77;0.80;;;21.00;50.40;;;;;;10437346;28;20278;-74
2021/07/08 20:09:54;;;;;;;1.37;0.70;;;21.00;49.60;;;;;;10438765;28;20228;-74
2021/07/08 20:14:59;;;;;;;0.87;0.57;;;21.00;49.60;;;;;;10432758;28;20278;-74
2021/07/08 20:20:03;;;;;;;3.67;0.80;;;20.90;49.00;;;;;;10432654;28;20233;-74
2021/07/08 20:25:08;;;;;;;0.80;0.77;;;20.80;49.10;;;;;;10442898;28;20283;-74
2021/07/08 20:30:13;;;;;;;0.93;0.70;;;20.70;49.40;;;;;;10449821;28;20737;-74
2021/07/08 20:35:17;;;;;;;0.90;0.80;;;20.60;49.30;;;;;;10449133;28;20236;-74
2021/07/08 20:40:20;;;;;;;1.63;0.80;;;20.60;49.30;;;;;;10441436;28;20640;-74
2021/07/08 20:45:45;;;;;;;1.73;0.50;;;20.50;49.20;;;;;;10445425;28;20228;-74
2021/07/08 20:50:48;;;;;;;1.53;0.53;;;20.50;49.70;;;;;;10453823;28;20237;-74
2021/07/08 20:55:51;;;;;;;2.13;0.90;;;20.50;50.00;;;;;;10443470;28;20239;-74
2021/07/08 21:00:56;;;;;;;1.33;0.90;;;20.60;50.00;;;;;;10443159;28;20229;-74
2021/07/08 21:05:59;;;;;;;1.10;1.10;;;20.60;50.10;;;;;;10446362;28;20224;-74
2021/07/08 21:11:02;;;;;;;1.60;1.07;;;20.60;50.00;;;;;;10444048;28;20229;-73
2021/07/08 21:16:08;;;;;;;1.50;1.10;;;20.70;49.70;;;;;;10447813;28;20228;-74
2021/07/08 21:21:12;;;;;;;3.60;1.03;;;20.60;49.90;;;;;;10437754;28;20340;-74
2021/07/08 21:26:15;;;;;;;1.83;1.03;;;20.60;49.90;;;;;;10449966;28;20593;-74
2021/07/08 21:31:20;;;;;;;2.07;0.80;;;20.50;49.90;;;;;;10445216;28;20233;-74
2021/07/08 21:36:25;;;;;;;1.43;1.00;;;20.40;50.20;;;;;;10438203;28;20220;-74
2021/07/08 21:41:31;;;;;;;1.70;0.90;;;20.40;50.40;;;;;;10442106;28;20239;-74
2021/07/08 21:46:36;;;;;;;1.53;0.80;;;20.30;50.30;;;;;;10445009;28;20232;-75
2021/07/08 21:51:42;;;;;;;1.37;0.70;;;20.30;50.90;;;;;;10447662;28;20233;-74
2021/07/08 21:56:47;;;;;;;1.00;0.90;;;20.20;50.70;;;;;;10443146;28;20228;-74
2021/07/08 22:01:52;;;;;;;1.80;0.90;;;20.10;50.80;;;;;;10433901;28;20232;-74
2021/07/08 22:06:55;;;;;;;1.53;1.00;;;20.00;51.40;;;;;;10440698;28;20221;-74
2021/07/08 22:11:58;;;;;;;1.87;0.90;;;20.00;51.30;;;;;;10438181;28;20225;-74
2021/07/08 22:17:04;;;;;;;1.20;1.00;;;19.90;51.50;;;;;;10450699;28;20232;-73
2021/07/08 22:22:07;;;;;;;4.07;1.10;;;19.90;52.20;;;;;;10449895;28;20229;-74
2021/07/08 22:27:10;;;;;;;0.70;0.70;;;19.80;51.80;;;;;;10453748;28;20232;-73
2021/07/08 22:32:15;;;;;;;1.13;0.87;;;19.80;51.80;;;;;;10457343;28;20231;-74
2021/07/08 22:37:19;;;;;;;1.23;0.93;;;19.70;52.30;;;;;;10454257;28;20300;-74
2021/07/08 22:42:26;;;;;;;0.80;0.80;;;19.70;51.90;;;;;;10452571;28;20232;-74
2021/07/08 22:47:30;;;;;;;0.80;0.80;;;19.70;52.00;;;;;;10454821;28;20710;-74
2021/07/08 22:52:34;;;;;;;1.27;0.60;;;19.70;52.30;;;;;;10450132;28;20268;-74
2021/07/08 22:57:45;;;;;;;3.17;0.80;;;19.70;52.00;;;;;;10451674;28;20235;-74
2021/07/08 23:02:49;;;;;;;1.63;0.80;;;19.70;52.20;;;;;;10448741;28;20236;-74
2021/07/08 23:07:53;;;;;;;0.83;0.83;;;19.70;52.50;;;;;;10454388;28;20224;-74
2021/07/08 23:12:56;;;;;;;1.63;0.93;;;19.80;52.30;;;;;;10453763;28;20225;-74
2021/07/08 23:18:21;;;;;;;0.70;0.70;;;20.00;52.20;;;;;;10450578;28;20689;-74
2021/07/08 23:23:24;;;;;;;0.80;0.80;;;20.00;51.90;;;;;;10450633;28;20220;-74
2021/07/08 23:28:28;;;;;;;1.47;0.83;;;20.00;51.50;;;;;;10446417;28;20307;-74
2021/07/08 23:33:32;;;;;;;0.70;0.70;;;19.90;51.50;;;;;;10442036;28;20321;-74
2021/07/08 23:38:36;;;;;;;1.00;0.90;;;19.80;51.80;;;;;;10454353;28;20819;-74
